Time;durP1;ratioP1;P1;durP2;ratioP2;P2;SDS_P1;SDS_P2;PMS_P1;PMS_P2;Temp;Humidity;BMP_temperature;BMP_pressure;BME280_temperature;BME280_humidity;BME280_pressure;Samples;Min_cycle;Max_cycle;Signal;HPM_P1;HPM_P2
2023/03/13 06:01:27;;;;;;;;;4.00;4.00;;;;;13.84;100.00;100281.72;5313803;23;50202;-69
2023/03/13 06:03:53;;;;;;;;;6.00;5.00;;;;;13.40;100.00;100187.63;4968392;28;49862;-67
2023/03/13 06:06:18;;;;;;;;;7.75;7.00;;;;;14.01;100.00;100305.47;4970488;28;50239;-69
2023/03/13 06:08:44;;;;;;;;;5.25;5.25;;;;;13.77;100.00;100264.13;4972215;28;49716;-76
2023/03/13 06:11:09;;;;;;;;;6.00;5.00;;;;;13.93;100.00;100284.34;4972849;28;49982;-74
2023/03/13 06:13:35;;;;;;;;;6.25;6.00;;;;;13.85;100.00;100254.44;4972865;28;49821;-81
2023/03/13 06:16:00;;;;;;;;;5.25;5.00;;;;;14.13;100.00;100321.28;4972806;28;49841;-72
2023/03/13 06:18:26;;;;;;;;;5.75;4.00;;;;;13.53;100.00;100220.16;4967685;28;50273;-74
2023/03/13 06:20:57;;;;;;;;;5.00;5.00;;;;;14.12;100.00;100313.38;4964776;28;49800;-71
2023/03/13 06:23:23;;;;;;;;;5.50;4.25;;;;;13.85;100.00;100274.66;4964638;28;49771;-70
2023/03/13 06:25:48;;;;;;;;;7.00;5.00;;;;;13.37;100.00;100211.38;4971206;28;50105;-73
2023/03/13 06:28:14;;;;;;;;;5.75;4.75;;;;;13.69;100.00;100266.75;4966408;28;50694;-71
2023/03/13 06:30:40;;;;;;;;;5.25;5.25;;;;;12.87;100.00;100116.41;4972548;28;49814;-67
2023/03/13 06:33:05;;;;;;;;;10.00;6.00;;;;;13.74;100.00;100235.97;4955313;28;49798;-69
2023/03/13 06:35:31;;;;;;;;;6.00;6.00;;;;;13.88;100.00;100243.88;4973656;28;49986;-70
2023/03/13 06:37:56;;;;;;;;;8.00;5.00;;;;;14.02;100.00;100252.69;4973307;28;50275;-71
2023/03/13 06:40:21;;;;;;;;;5.00;5.00;;;;;13.97;100.00;100257.06;4973321;28;49883;-71
2023/03/13 06:42:47;;;;;;;;;7.75;7.75;;;;;13.75;100.00;100235.09;4973170;28;50057;-72
2023/03/13 06:45:12;;;;;;;;;9.00;6.25;;;;;13.59;100.00;100191.13;4972636;28;49739;-76
2023/03/13 06:47:37;;;;;;;;;7.00;5.25;;;;;14.03;100.00;100258.84;4970357;28;50763;-75
2023/03/13 06:50:04;;;;;;;;;5.00;5.00;;;;;14.15;100.00;100287.84;4954764;28;49994;-76
2023/03/13 06:52:29;;;;;;;;;5.50;4.00;;;;;12.73;100.00;100021.56;4974437;28;50264;-81
2023/03/13 06:54:54;;;;;;;;;5.00;4.00;;;;;13.82;100.00;100214.88;4968887;28;53416;-79
2023/03/13 06:57:20;;;;;;;;;5.50;5.00;;;;;14.14;100.00;100280.81;4977181;28;49734;-73
2023/03/13 06:59:45;;;;;;;;;5.50;4.50;;;;;14.08;100.00;100254.41;4980171;28;49230;-83
2023/03/13 07:02:11;;;;;;;;;5.25;4.75;;;;;13.02;100.00;100086.56;4984384;28;49634;-76
2023/03/13 07:04:36;;;;;;;;;7.50;6.25;;;;;12.99;100.00;100068.13;4969319;28;49646;-75
2023/03/13 07:07:02;;;;;;;;;5.50;4.25;;;;;14.02;100.00;100225.41;4969575;28;50962;-71
2023/03/13 07:09:27;;;;;;;;;3.75;3.75;;;;;13.83;100.00;100192.91;4969146;28;49642;-70
2023/03/13 07:11:53;;;;;;;;;5.00;3.75;;;;;14.02;100.00;100247.41;4987999;28;49361;-68
2023/03/13 07:14:19;;;;;;;;;5.00;5.00;;;;;13.62;100.00;100146.31;4988842;28;49935;-67
2023/03/13 07:16:45;;;;;;;;;5.50;4.75;;;;;14.19;100.00;100244.72;4969921;28;50189;-76
2023/03/13 07:19:11;;;;;;;;;3.25;3.00;;;;;14.31;100.00;100257.03;4969478;28;49705;-73
2023/03/13 07:21:36;;;;;;;;;4.25;4.25;;;;;13.73;100.00;100146.31;4969808;28;49422;-72
2023/03/13 07:24:02;;;;;;;;;5.75;5.75;;;;;13.89;100.00;100169.13;4969620;28;49964;-81
2023/03/13 07:26:28;;;;;;;;;4.00;4.00;;;;;14.07;100.00;100193.72;4974806;28;49829;-79
2023/03/13 07:28:54;;;;;;;;;4.75;3.00;;;;;14.04;100.00;100187.56;4971619;28;49318;-72
2023/03/13 07:31:20;;;;;;;;;2.50;2.25;;;;;14.31;100.00;100220.06;4970083;28;49682;-74
2023/03/13 07:33:46;;;;;;;;;7.00;6.00;;;;;14.22;100.00;100217.44;4985493;28;49629;-78
2023/03/13 07:36:14;;;;;;;;;3.00;3.00;;;;;14.47;100.00;100242.03;4988187;28;49741;-80
2023/03/13 07:38:41;;;;;;;;;6.00;4.50;;;;;13.79;100.00;100098.78;4983903;28;49631;-75
2023/03/13 07:41:07;;;;;;;;;4.75;4.75;;;;;14.39;100.00;100201.56;4967279;28;50142;-74
2023/03/13 07:43:32;;;;;;;;;6.50;4.25;;;;;14.17;100.00;100164.63;4970126;28;49625;-75
2023/03/13 07:46:00;;;;;;;;;5.00;4.00;;;;;14.44;100.00;100203.28;4968515;28;50249;-79
2023/03/13 07:48:32;;;;;;;;;4.00;3.50;;;;;14.20;100.00;100158.50;4984619;28;49574;-74
2023/03/13 07:50:57;;;;;;;;;5.00;5.00;;;;;14.25;100.00;100167.25;4985206;28;49768;-70
2023/03/13 07:53:23;;;;;;;;;9.00;7.25;;;;;14.05;100.00;100122.47;4967431;28;49289;-74
2023/03/13 07:55:53;;;;;;;;;5.25;5.25;;;;;14.70;100.00;100216.41;4968518;28;49879;-77
2023/03/13 07:58:18;;;;;;;;;5.75;5.75;;;;;13.65;100.00;100046.09;4969112;28;49668;-76
2023/03/13 08:00:44;;;;;;;;;9.25;6.50;;;;;13.88;100.00;100067.09;4969504;28;49836;-75
2023/03/13 08:03:09;;;;;;;;;4.00;4.00;;;;;14.85;100.00;100226.00;4969777;28;49643;-72
2023/03/13 08:05:34;;;;;;;;;7.25;6.00;;;;;14.39;100.00;100140.81;4951734;28;50548;-72
2023/03/13 08:08:00;;;;;;;;;4.50;4.50;;;;;14.87;100.00;100209.28;4970052;28;49323;-71
2023/03/13 08:10:25;;;;;;;;;3.00;2.25;;;;;14.37;100.00;100155.75;4970182;28;49312;-73
2023/03/13 08:12:51;;;;;;;;;4.75;4.75;;;;;14.54;100.00;100162.75;4952461;28;49629;-74
2023/03/13 08:15:20;;;;;;;;;4.50;4.50;;;;;14.55;100.00;100169.81;4967362;28;50080;-71
2023/03/13 08:17:45;;;;;;;;;6.50;5.50;;;;;14.35;100.00;100123.22;4963549;28;49743;-71
2023/03/13 08:20:11;;;;;;;;;6.00;4.50;;;;;14.55;100.00;100161.00;4977244;28;49333;-71
2023/03/13 08:22:37;;;;;;;;;4.75;4.00;;;;;14.59;100.00;100168.91;4981419;28;49189;-74
2023/03/13 08:25:02;;;;;;;;;7.50;5.50;;;;;14.17;100.00;100117.13;4969362;28;49850;-74
2023/03/13 08:27:29;;;;;;;;;5.75;4.50;;;;;13.97;100.00;100045.97;4951321;28;49626;-74
2023/03/13 08:29:54;;;;;;;;;6.00;5.50;;;;;14.48;100.00;100119.69;4968309;28;49629;-75
2023/03/13 08:32:20;;;;;;;;;3.75;3.75;;;;;13.91;100.00;100063.59;4969329;28;49431;-70
2023/03/13 08:34:46;;;;;;;;;4.75;4.00;;;;;14.93;100.00;100204.84;4975553;28;50397;-72
2023/03/13 08:37:14;;;;;;;;;4.00;4.00;;;;;14.40;100.00;100100.31;4968654;28;49266;-74
2023/03/13 08:39:40;;;;;;;;;5.00;4.50;;;;;14.47;100.00;100089.72;4968873;28;49930;-73
2023/03/13 08:42:08;;;;;;;;;6.00;4.50;;;;;14.95;100.00;100150.19;4973331;28;49523;-71
2023/03/13 08:44:34;;;;;;;;;5.00;4.50;;;;;14.31;100.00;100038.75;4986876;28;49721;-71
2023/03/13 08:46:59;;;;;;;;;3.00;3.00;;;;;15.04;100.00;100152.78;4987648;28;51090;-70
2023/03/13 08:49:24;;;;;;;;;6.00;5.00;;;;;15.01;100.00;100123.72;4975540;28;49587;-74
2023/03/13 08:51:50;;;;;;;;;4.00;4.00;;;;;15.08;100.00;100121.03;4968470;28;50020;-71
2023/03/13 08:54:15;;;;;;;;;5.00;3.50;;;;;15.42;100.00;100208.03;4967421;28;49959;-72
2023/03/13 08:56:42;;;;;;;;;3.75;3.00;;;;;15.49;100.00;100177.13;4974793;28;49189;-71
2023/03/13 08:59:09;;;;;;;;;6.25;5.00;;;;;15.40;100.00;100141.91;4968770;28;49666;-73
2023/03/13 09:01:35;;;;;;;;;4.25;4.25;;;;;15.78;100.00;100146.00;4967420;28;49570;-71
2023/03/13 09:04:01;;;;;;;;;4.00;4.00;;;;;15.70;100.00;100095.81;4967563;28;50340;-71
2023/03/13 09:06:27;;;;;;;;;5.00;4.75;;;;;15.49;100.00;100031.63;4967608;28;49568;-70
2023/03/13 09:08:55;;;;;;;;;4.75;4.00;;;;;15.43;100.00;99996.41;4975383;28;49471;-70
2023/03/13 09:11:21;;;;;;;;;3.25;2.50;;;;;15.81;100.00;100053.34;4976534;28;49545;-69
2023/03/13 09:13:48;;;;;;;;;3.00;3.00;;;;;15.70;100.00;100045.53;4968566;28;49929;-72
2023/03/13 09:16:22;;;;;;;;;4.00;4.00;;;;;15.87;100.00;100055.94;4968623;28;49499;-71
2023/03/13 09:18:49;;;;;;;;;3.00;2.25;;;;;16.30;100.00;100101.25;4968380;28;49420;-73
2023/03/13 09:21:26;;;;;;;;;3.50;2.00;;;;;16.19;100.00;100097.88;4968807;28;49599;-72
2023/03/13 09:23:51;;;;;;;;;2.00;2.00;;;;;15.57;100.00;99995.41;4968322;28;50513;-71
2023/03/13 09:26:18;;;;;;;;;2.00;2.00;;;;;15.56;100.00;100002.47;4967420;28;49839;-76
2023/03/13 09:28:44;;;;;;;;;2.75;2.75;;;;;15.70;100.00;100057.88;4969232;28;49352;-73
2023/03/13 09:31:12;;;;;;;;;5.00;3.00;;;;;16.05;100.00;100118.38;4968103;28;49894;-72
2023/03/13 09:33:38;;;;;;;;;5.00;5.00;;;;;16.03;100.00;100126.34;4966386;28;49600;-74
2023/03/13 09:36:03;;;;;;;;;2.00;2.00;;;;;15.59;100.00;100065.03;4969033;28;49452;-71
2023/03/13 09:38:29;;;;;;;;;2.00;2.00;;;;;15.81;100.00;100103.63;4968994;28;49719;-73
2023/03/13 09:40:54;;;;;;;;;3.25;3.25;;;;;15.52;100.00;100077.44;4965042;28;50628;-72
2023/03/13 09:43:46;;;;;;;;;5.00;3.75;;;;;15.10;100.00;99994.13;4967615;28;50065;-72
2023/03/13 09:46:20;;;;;;;;;5.75;5.75;;;;;15.85;100.00;100117.72;4964335;28;49465;-73
2023/03/13 09:48:54;;;;;;;;;5.75;5.00;;;;;13.89;100.00;99805.00;4966811;28;49297;-74
2023/03/13 09:51:35;;;;;;;;;7.25;7.00;;;;;15.72;100.00;100115.19;4953702;28;49877;-73
2023/03/13 09:54:20;;;;;;;;;7.00;7.00;;;;;15.66;100.00;100106.44;4950004;28;51378;-78
2023/03/13 09:56:51;;;;;;;;;6.75;6.00;;;;;15.60;100.00;100094.16;4950823;28;49690;-76
2023/03/13 09:59:45;;;;;;;;;5.75;5.75;;;;;15.36;100.00;100066.16;4954035;28;49834;-79
2023/03/13 10:02:22;;;;;;;;;6.25;5.75;;;;;15.40;100.00;100043.19;4954036;28;49879;-74
2023/03/13 10:04:55;;;;;;;;;2.25;2.25;;;;;15.56;100.00;100060.66;4949788;28;49896;-75
2023/03/13 10:07:20;;;;;;;;;5.00;4.75;;;;;15.50;100.00;100050.13;4949776;28;49806;-78
2023/03/13 10:09:45;;;;;;;;;2.00;2.00;;;;;15.64;100.00;100081.78;4950237;28;49851;-76
2023/03/13 10:12:15;;;;;;;;;2.50;2.50;;;;;15.67;100.00;100060.56;4934687;28;49911;-76
2023/03/13 10:14:43;;;;;;;;;1.25;1.25;;;;;15.67;100.00;100074.69;4949949;28;50431;-75
2023/03/13 10:17:27;;;;;;;;;4.50;4.50;;;;;15.72;100.00;100064.03;4952596;28;50010;-78
2023/03/13 10:20:00;;;;;;;;;4.50;3.00;;;;;15.82;100.00;100062.16;4960468;28;49664;-74
2023/03/13 10:22:29;;;;;;;;;6.50;3.00;;;;;15.63;100.00;100013.84;4954439;28;49837;-77
2023/03/13 10:24:57;;;;;;;;;3.00;3.00;;;;;15.86;100.00;100042.72;4953597;28;49814;-77
2023/03/13 10:27:22;;;;;;;;;2.50;2.00;;;;;15.76;100.00;100009.31;4964625;28;49648;-82
2023/03/13 10:29:48;;;;;;;;;2.00;2.00;;;;;15.62;100.00;99988.31;4955310;28;49760;-77
2023/03/13 10:32:16;;;;;;;;;4.00;1.25;;;;;16.04;100.00;100034.53;4945186;28;50067;-72
2023/03/13 10:34:59;;;;;;;;;1.00;1.00;;;;;16.17;100.00;100029.94;4953793;28;50887;-76
2023/03/13 10:37:29;;;;;;;;;1.00;1.00;;;;;16.31;100.00;100025.34;4936370;28;49818;-74
2023/03/13 10:40:10;;;;;;;;;2.25;2.25;;;;;15.72;100.00;99924.66;4954006;28;49698;-77
2023/03/13 10:42:41;;;;;;;;;3.25;1.25;;;;;15.82;100.00;99948.34;4953855;28;49779;-71
2023/03/13 10:45:15;;;;;;;;;2.00;2.00;;;;;16.21;100.00;99925.72;4953522;28;49847;-79
2023/03/13 10:47:40;;;;;;;;;2.00;2.00;;;;;16.59;100.00;99957.78;4936293;28;49807;-76
2023/03/13 10:50:06;;;;;;;;;2.00;2.00;;;;;16.68;100.00;99932.03;4936387;28;49862;-78
2023/03/13 10:52:42;;;;;;;;;3.25;3.00;;;;;16.55;100.00;99912.81;4953978;28;49761;-76
2023/03/13 10:55:26;;;;;;;;;3.50;2.00;;;;;16.09;100.00;99849.13;4936006;28;52069;-72
2023/03/13 10:57:57;;;;;;;;;1.25;1.25;;;;;16.31;100.00;99885.84;4936255;28;49656;-76
2023/03/13 11:00:32;;;;;;;;;1.75;1.00;;;;;16.81;100.00;99978.66;4953199;28;49697;-71
2023/03/13 11:02:58;;;;;;;;;2.25;2.25;;;;;16.15;100.00;99844.63;4970929;28;50515;-73
2023/03/13 11:05:35;;;;;;;;;2.50;2.50;;;;;16.95;100.00;99947.47;4971870;28;50485;-73
2023/03/13 11:08:19;;;;;;;;;3.75;3.50;;;;;17.52;100.00;99972.94;4972546;28;49882;-71
2023/03/13 11:10:57;;;;;;;;;5.50;4.00;;;;;17.01;100.00;99846.63;4972475;28;49806;-76
2023/03/13 11:13:44;;;;;;;;;3.00;3.00;;;;;17.98;100.00;99964.91;4972528;28;49948;-73
2023/03/13 11:16:22;;;;;;;;;0.50;0.50;;;;;17.74;100.00;99908.75;4971746;28;51013;-77
2023/03/13 11:19:18;;;;;;;;;4.25;2.25;;;;;18.19;100.00;99956.44;4971994;28;49732;-75
2023/03/13 11:21:59;;;;;;;;;2.25;2.25;;;;;18.26;100.00;99944.78;4954525;28;49893;-74
2023/03/13 11:24:43;;;;;;;;;2.25;1.00;;;;;18.17;100.00;99894.53;4972141;28;49958;-74
2023/03/13 11:27:34;;;;;;;;;1.00;1.00;;;;;18.72;100.00;99964.06;4954052;28;52468;-77
2023/03/13 11:30:43;;;;;;;;;1.25;1.00;;;;;18.75;100.00;99970.19;4971549;28;49667;-78
2023/03/13 11:33:16;;;;;;;;;1.00;1.00;;;;;18.76;100.00;99957.78;4971912;28;49750;-75
2023/03/13 11:36:01;;;;;;;;;2.75;1.50;;;;;18.66;100.00;99951.81;4972019;28;49784;-69
2023/03/13 11:38:34;;;;;;;;;0.50;0.00;;;;;18.31;100.00;99905.66;4953832;28;52300;-70
2023/03/13 11:41:18;;;;;;;;;2.00;1.75;;;;;18.43;100.00;99915.16;4954158;28;49739;-72
2023/03/13 11:43:57;;;;;;;;;2.25;2.25;;;;;18.47;100.00;99931.88;4954120;28;49688;-72
2023/03/13 11:47:00;;;;;;;;;1.00;1.00;;;;;18.42;100.00;99918.69;4967267;28;50146;-75
2023/03/13 11:49:34;;;;;;;;;2.75;1.00;;;;;18.39;100.00;99894.00;4931172;28;50911;-74
2023/03/13 11:52:21;;;;;;;;;1.00;1.00;;;;;18.52;100.00;99948.56;4969159;28;49546;-72
2023/03/13 11:55:02;;;;;;;;;2.00;2.00;;;;;18.33;100.00;99931.31;4971314;28;49771;-76
2023/03/13 11:57:42;;;;;;;;;2.50;1.25;;;;;17.29;100.00;99814.22;4953940;28;49953;-78
2023/03/13 12:00:32;;;;;;;;;1.75;1.75;;;;;18.14;100.00;99929.09;4970527;28;50831;-72
2023/03/13 12:03:04;;;;;;;;;5.00;5.00;;;;;18.11;100.00;99920.34;4953705;28;49786;-73
2023/03/13 12:05:41;;;;;;;;;1.00;1.00;;;;;17.40;100.00;99852.88;4971498;28;49815;-73
2023/03/13 12:08:16;;;;;;;;;1.00;1.00;;;;;17.75;100.00;99864.50;4971428;28;49811;-74
2023/03/13 12:10:59;;;;;;;;;1.00;1.00;;;;;17.18;100.00;99790.59;4970966;28;50964;-77
2023/03/13 12:13:40;;;;;;;;;4.00;3.00;;;;;16.90;100.00;99749.66;4971106;28;49782;-79
2023/03/13 12:16:13;;;;;;;;;2.00;2.00;;;;;17.28;100.00;99785.97;4970616;28;49620;-76
2023/03/13 12:18:42;;;;;;;;;2.00;2.00;;;;;17.99;100.00;99853.34;4971385;28;49791;-74
2023/03/13 12:21:38;;;;;;;;;2.75;2.75;;;;;18.46;100.00;99880.53;4946006;28;49865;-76
2023/03/13 12:24:17;;;;;;;;;1.25;1.25;;;;;17.56;100.00;99735.75;4952087;28;49740;-71
2023/03/13 12:26:54;;;;;;;;;4.00;4.00;;;;;18.60;100.00;99864.19;4952340;28;49594;-73
2023/03/13 12:29:28;;;;;;;;;3.00;2.25;;;;;18.48;100.00;99853.91;4952466;28;49795;-73
2023/03/13 12:32:08;;;;;;;;;3.00;1.25;;;;;18.29;100.00;99827.78;4946304;28;49844;-71
2023/03/13 12:34:58;;;;;;;;;2.50;2.50;;;;;18.55;100.00;99836.88;4951656;28;49843;-78
2023/03/13 12:37:39;;;;;;;;;3.50;3.50;;;;;18.17;100.00;99787.41;4951518;28;50184;-77
2023/03/13 12:40:30;;;;;;;;;2.50;1.50;;;;;18.08;100.00;99777.00;4952559;28;49876;-71
2023/03/13 12:42:58;;;;;;;;;1.00;1.00;;;;;18.34;100.00;99833.00;4951458;28;51015;-76
2023/03/13 12:45:25;;;;;;;;;1.50;1.50;;;;;18.18;100.00;99808.59;4951826;28;49661;-75
2023/03/13 12:48:23;;;;;;;;;3.00;3.00;;;;;18.37;100.00;99811.66;4952536;28;49888;-75
2023/03/13 12:51:19;;;;;;;;;2.75;2.25;;;;;18.46;100.00;99794.59;4946460;28;49742;-79
2023/03/13 12:54:07;;;;;;;;;1.25;1.25;;;;;18.65;100.00;99805.66;4951772;28;51178;-72
2023/03/13 12:56:38;;;;;;;;;6.25;2.75;;;;;18.55;100.00;99783.72;4951947;28;49784;-76
2023/03/13 12:59:14;;;;;;;;;2.25;2.25;;;;;18.53;100.00;99759.84;4951924;28;49883;-76
2023/03/13 13:01:47;;;;;;;;;5.75;3.00;;;;;18.85;100.00;99777.59;4951773;28;49970;-73
2023/03/13 13:04:16;;;;;;;;;2.00;1.75;;;;;18.73;100.00;99772.63;4934297;28;51834;-77
2023/03/13 13:06:53;;;;;;;;;4.25;2.00;;;;;18.73;100.00;99777.94;4934360;28;49777;-75
2023/03/13 13:09:28;;;;;;;;;4.00;3.25;;;;;18.58;100.00;99743.75;4948417;28;49947;-75
2023/03/13 13:11:56;;;;;;;;;2.00;2.00;;;;;18.86;100.00;99762.50;4950203;28;49616;-76
2023/03/13 13:14:22;;;;;;;;;4.25;2.00;;;;;18.94;100.00;99751.66;4934883;28;52415;-74
2023/03/13 13:16:54;;;;;;;;;2.50;1.00;;;;;18.98;100.00;99734.66;4952637;28;52958;-74
2023/03/13 13:19:40;;;;;;;;;8.00;3.00;;;;;19.10;100.00;99732.50;4940243;28;49780;-74
2023/03/13 13:22:36;;;;;;;;;2.50;2.50;;;;;19.18;100.00;99721.63;4954433;28;49925;-74
2023/03/13 13:25:10;;;;;;;;;3.00;2.00;;;;;19.29;100.00;99719.50;4958796;28;50941;-74
2023/03/13 13:27:35;;;;;;;;;2.00;2.00;;;;;19.40;100.00;99701.44;4956370;28;50583;-76
2023/03/13 13:30:22;;;;;;;;;2.75;2.25;;;;;19.13;100.00;99623.34;4944585;28;49820;-74
2023/03/13 13:32:51;;;;;;;;;2.00;2.00;;;;;19.63;100.00;99694.50;4933968;28;49920;-72
2023/03/13 13:35:26;;;;;;;;;1.25;1.25;;;;;19.67;100.00;99690.81;4951807;28;51383;-73
2023/03/13 13:37:52;;;;;;;;;1.25;1.25;;;;;19.55;100.00;99654.78;4951383;28;50023;-77
2023/03/13 13:40:22;;;;;;;;;2.75;1.75;;;;;19.72;100.00;99673.78;4951188;28;49934;-73
2023/03/13 13:42:54;;;;;;;;;1.75;1.75;;;;;19.75;100.00;99678.13;4950372;28;50041;-74
2023/03/13 13:45:32;;;;;;;;;5.25;3.00;;;;;19.52;100.00;99675.34;4941839;28;49826;-74
2023/03/13 13:48:31;;;;;;;;;1.00;1.00;;;;;19.35;100.00;99675.88;4954620;28;49822;-73
2023/03/13 13:51:15;;;;;;;;;2.75;1.50;;;;;19.17;100.00;99672.00;4948257;28;49619;-73
2023/03/13 13:53:54;;;;;;;;;1.25;1.25;;;;;18.95;100.00;99641.69;4945984;28;49865;-73
2023/03/13 13:56:41;;;;;;;;;2.25;1.00;;;;;19.14;100.00;99645.50;4935831;28;51768;-74
2023/03/13 13:59:24;;;;;;;;;2.00;2.00;;;;;19.10;100.00;99631.41;4932108;28;49863;-74
2023/03/13 14:02:09;;;;;;;;;1.50;1.00;;;;;18.85;100.00;99617.16;4954359;28;49975;-74
2023/03/13 14:05:00;;;;;;;;;5.00;3.50;;;;;18.49;100.00;99568.63;4969885;28;49424;-75
2023/03/13 14:07:41;;;;;;;;;4.00;1.25;;;;;18.55;100.00;99624.25;4970225;28;49984;-73
2023/03/13 14:10:38;;;;;;;;;3.25;1.00;;;;;18.64;100.00;99631.09;4970117;28;49753;-74
2023/03/13 14:13:14;;;;;;;;;1.75;1.50;;;;;18.72;100.00;99618.44;4989511;28;49477;-73
2023/03/13 14:15:47;;;;;;;;;1.00;1.00;;;;;18.84;100.00;99621.63;4987750;28;49681;-73
2023/03/13 14:18:25;;;;;;;;;2.75;2.00;;;;;18.73;100.00;99598.94;4988253;28;50160;-73
2023/03/13 14:20:58;;;;;;;;;1.00;1.00;;;;;18.64;100.00;99586.78;4989645;28;49245;-73
2023/03/13 14:23:42;;;;;;;;;0.25;0.25;;;;;18.69;100.00;99600.81;4989515;28;49992;-75
2023/03/13 14:26:29;;;;;;;;;4.25;2.50;;;;;18.38;100.00;99576.91;4976401;28;49520;-75
2023/03/13 14:28:57;;;;;;;;;1.25;1.25;;;;;18.52;100.00;99584.47;4972999;28;50160;-74
2023/03/13 14:31:30;;;;;;;;;3.00;3.00;;;;;18.52;100.00;99585.34;4971162;28;49512;-75
2023/03/13 14:33:57;;;;;;;;;1.75;1.50;;;;;18.23;100.00;99538.38;4979889;28;49679;-75
2023/03/13 14:36:24;;;;;;;;;2.00;0.25;;;;;18.22;100.00;99554.38;4971645;28;49513;-75
2023/03/13 14:38:58;;;;;;;;;3.00;2.00;;;;;17.64;100.00;99477.25;4973687;28;50357;-74
2023/03/13 14:41:28;;;;;;;;;1.50;1.00;;;;;17.99;100.00;99558.56;4951235;28;49408;-74
2023/03/13 14:44:00;;;;;;;;;1.50;1.50;;;;;18.05;100.00;99552.22;4954812;28;49502;-75
2023/03/13 14:46:30;;;;;;;;;2.00;2.00;;;;;18.00;100.00;99554.13;4988987;28;49546;-73
2023/03/13 14:48:56;;;;;;;;;1.00;1.00;;;;;18.06;100.00;99569.03;4990134;28;49594;-75
2023/03/13 14:51:27;;;;;;;;;5.00;2.25;;;;;17.72;100.00;99509.78;4957371;28;49618;-74
2023/03/13 14:54:02;;;;;;;;;2.00;2.00;;;;;17.80;100.00;99559.13;4938299;28;49868;-74
2023/03/13 14:56:42;;;;;;;;;1.50;0.75;;;;;17.54;100.00;99547.41;4968622;28;50036;-73
2023/03/13 14:59:18;;;;;;;;;5.75;5.75;;;;;17.33;100.00;99521.47;4948068;28;49765;-77
2023/03/13 15:01:45;;;;;;;;;2.75;1.25;;;;;17.64;100.00;99580.75;4952956;28;49756;-74
2023/03/13 15:04:10;;;;;;;;;0.75;0.75;;;;;17.31;100.00;99542.72;4952907;28;49892;-73
2023/03/13 15:06:36;;;;;;;;;1.75;1.50;;;;;17.18;100.00;99530.69;4936258;28;50076;-75
2023/03/13 15:09:20;;;;;;;;;1.25;0.75;;;;;17.09;100.00;99539.75;4955261;28;49732;-73
2023/03/13 15:11:59;;;;;;;;;1.00;1.00;;;;;17.09;100.00;99533.59;4955557;28;50116;-76
2023/03/13 15:14:43;;;;;;;;;2.00;2.00;;;;;17.14;100.00;99556.41;4953449;28;49783;-76
2023/03/13 15:17:19;;;;;;;;;0.75;0.75;;;;;16.93;100.00;99545.47;4953315;28;49951;-75
2023/03/13 15:19:51;;;;;;;;;0.75;0.75;;;;;16.84;100.00;99549.22;4955163;28;49898;-75
2023/03/13 15:22:18;;;;;;;;;3.00;1.00;;;;;16.52;100.00;99479.28;4972541;28;49925;-75
2023/03/13 15:24:45;;;;;;;;;4.00;2.00;;;;;16.71;100.00;99531.88;4972233;28;49886;-76
2023/03/13 15:27:18;;;;;;;;;3.25;2.75;;;;;16.48;100.00;99479.38;4973393;28;49872;-75
2023/03/13 15:29:45;;;;;;;;;3.25;1.25;;;;;16.77;100.00;99529.91;4974868;28;50433;-75
2023/03/13 15:32:32;;;;;;;;;1.00;0.00;;;;;16.78;100.00;99531.66;4975324;28;49553;-74
2023/03/13 15:35:00;;;;;;;;;1.75;1.75;;;;;16.39;100.00;99474.28;4952696;28;49622;-72
2023/03/13 15:37:29;;;;;;;;;1.00;1.00;;;;;16.78;100.00;99525.50;4970509;28;49910;-74
2023/03/13 15:39:56;;;;;;;;;1.50;1.50;;;;;16.59;100.00;99486.16;4971637;28;49918;-74
2023/03/13 15:42:23;;;;;;;;;1.25;0.50;;;;;16.66;100.00;99515.16;4971545;28;49818;-74
2023/03/13 15:44:48;;;;;;;;;1.00;1.00;;;;;16.42;100.00;99475.09;4971364;28;49748;-77
2023/03/13 15:47:17;;;;;;;;;1.50;0.50;;;;;16.53;100.00;99509.28;4972015;28;50066;-74
2023/03/13 15:49:43;;;;;;;;;2.75;1.00;;;;;16.33;100.00;99466.50;4971348;28;51032;-72
2023/03/13 15:52:21;;;;;;;;;0.00;0.00;;;;;16.44;100.00;99506.84;4953988;28;49746;-73
2023/03/13 15:54:47;;;;;;;;;3.00;3.00;;;;;16.32;100.00;99486.81;4971561;28;49841;-72
2023/03/13 15:57:15;;;;;;;;;1.00;1.00;;;;;16.24;100.00;99476.38;4971505;28;49789;-74
2023/03/13 15:59:42;;;;;;;;;1.00;1.00;;;;;16.31;100.00;99485.94;4970921;28;49802;-74
2023/03/13 16:02:14;;;;;;;;;1.50;0.75;;;;;16.41;100.00;99496.34;4971260;28;49597;-76
2023/03/13 16:04:40;;;;;;;;;4.00;4.00;;;;;16.23;100.00;99477.31;4971305;28;49833;-73
2023/03/13 16:07:13;;;;;;;;;1.00;1.00;;;;;16.14;100.00;99450.16;4971557;28;50102;-70
2023/03/13 16:09:40;;;;;;;;;1.00;1.00;;;;;16.38;100.00;99485.78;4971133;28;51194;-73
2023/03/13 16:12:06;;;;;;;;;1.00;1.00;;;;;16.25;100.00;99474.63;4971654;28;50036;-73
2023/03/13 16:14:34;;;;;;;;;1.50;1.50;;;;;16.14;100.00;99460.75;4970646;28;49909;-71
2023/03/13 16:17:00;;;;;;;;;1.00;1.00;;;;;15.81;100.00;99417.34;4970858;28;49936;-70
2023/03/13 16:19:26;;;;;;;;;1.00;1.00;;;;;15.78;100.00;99407.72;4970313;28;49644;-76
2023/03/13 16:21:52;;;;;;;;;2.00;1.00;;;;;16.27;100.00;99491.34;4946293;28;49717;-83
2023/03/13 16:24:18;;;;;;;;;0.00;0.00;;;;;15.71;100.00;99382.28;4941383;28;49781;-81
2023/03/13 16:26:44;;;;;;;;;2.25;2.00;;;;;15.74;100.00;99420.16;4936323;28;50080;-76
2023/03/13 16:29:11;;;;;;;;;2.75;1.00;;;;;15.35;100.00;99336.34;4951501;28;49979;-76
2023/03/13 16:31:36;;;;;;;;;1.75;1.75;;;;;16.52;100.00;99505.75;4953716;28;50095;-75
2023/03/13 16:34:02;;;;;;;;;1.75;1.75;;;;;15.91;100.00;99382.72;4952727;28;50081;-79
2023/03/13 16:36:30;;;;;;;;;2.75;1.75;;;;;16.52;100.00;99499.59;4957717;28;50162;-85
2023/03/13 16:39:10;;;;;;;;;2.50;1.00;;;;;15.61;100.00;99317.25;4952715;28;49833;-72
2023/03/13 16:41:36;;;;;;;;;1.00;1.00;;;;;15.76;100.00;99353.97;4953325;28;49696;-75
2023/03/13 16:44:02;;;;;;;;;2.75;1.75;;;;;16.11;100.00;99432.53;4950248;28;49764;-76
2023/03/13 16:46:35;;;;;;;;;1.00;1.00;;;;;16.57;100.00;99466.78;4952631;28;49696;-77
2023/03/13 16:49:00;;;;;;;;;0.75;0.75;;;;;16.50;100.00;99437.81;4952113;28;49980;-74
2023/03/13 16:51:27;;;;;;;;;1.50;1.50;;;;;16.53;100.00;99445.72;4952515;28;49784;-76
2023/03/13 16:53:54;;;;;;;;;2.00;2.00;;;;;16.33;100.00;99435.59;4951190;28;50418;-77
2023/03/13 16:56:27;;;;;;;;;3.00;2.00;;;;;16.66;100.00;99440.97;4955259;28;49924;-74
2023/03/13 16:58:53;;;;;;;;;1.00;1.00;;;;;16.22;100.00;99359.06;4950187;28;52469;-76
2023/03/13 17:01:18;;;;;;;;;2.00;2.00;;;;;16.53;100.00;99421.88;4932359;28;49812;-76
2023/03/13 17:03:44;;;;;;;;;0.50;0.50;;;;;15.38;100.00;99244.59;4933434;28;50069;-75
2023/03/13 17:06:14;;;;;;;;;0.50;0.00;;;;;16.52;100.00;99418.34;4953301;28;49930;-75
2023/03/13 17:08:40;;;;;;;;;3.25;2.00;;;;;16.20;100.00;99360.84;4951113;28;49966;-75
2023/03/13 17:11:06;;;;;;;;;0.50;0.50;;;;;16.29;100.00;99370.34;4951574;28;49881;-74
2023/03/13 17:13:31;;;;;;;;;1.00;1.00;;;;;16.19;100.00;99368.84;4951826;28;49843;-74
2023/03/13 17:15:56;;;;;;;;;1.00;0.00;;;;;16.20;100.00;99382.03;4951738;28;50032;-75
2023/03/13 17:18:22;;;;;;;;;1.00;1.00;;;;;16.29;100.00;99400.34;4951745;28;51304;-74
2023/03/13 17:20:49;;;;;;;;;1.25;1.25;;;;;15.91;100.00;99353.59;4952060;28;49918;-75
2023/03/13 17:23:15;;;;;;;;;1.00;1.00;;;;;15.71;100.00;99324.94;4952501;28;49803;-74
2023/03/13 17:25:40;;;;;;;;;0.25;0.25;;;;;15.69;100.00;99329.41;4951185;28;57505;-71
2023/03/13 17:28:11;;;;;;;;;3.25;2.25;;;;;15.82;100.00;99382.06;4951514;28;50897;-74
2023/03/13 17:30:37;;;;;;;;;1.00;0.00;;;;;15.59;100.00;99372.81;4957271;28;49743;-72
2023/03/13 17:33:02;;;;;;;;;2.25;2.25;;;;;15.57;100.00;99390.50;4973679;28;51283;-77
2023/03/13 17:35:27;;;;;;;;;0.50;0.00;;;;;15.45;100.00;99380.19;4974179;28;50266;-69
2023/03/13 17:37:53;;;;;;;;;3.25;1.00;;;;;15.11;100.00;99351.78;4973785;28;50888;-68
2023/03/13 17:40:21;;;;;;;;;1.00;1.00;;;;;15.25;100.00;99377.97;4973586;28;49763;-68
2023/03/13 17:42:47;;;;;;;;;1.00;0.00;;;;;15.15;100.00;99397.53;4973754;28;49736;-69